sim
Sign-in with your pilot id or email,
or register
Callsign
Passwort

Schedule Details

Flight Number: OEF9057
Departure: Munich Airport (EDDM) at 16:20
Arrival: Boston Logan International Airport (KBOS) at 00:35

Weather Information
Getting current METAR information for EDDM 242220Z 28011KT 250V310 9999 -RA SCT025 BKN045 15/12 Q1004 TEMPO RA
Getting current METAR information for KBOS 242154Z 24008KT 8SM BKN220 OVC300 24/12 A2994 RMK AO2 SLP137 T02390122

Schedule Frequency

Route Map